Home   Weather   Germany   Wolfenbüttel   Past weeks
Flag for Germany

Past Weather in Wolfenbüttel, Lower Saxony, Germany — Yesterday and Last 2 Weeks

Currently: 63 °F. Passing clouds. (Weather station: Braunschweig Wolfsburg, Germany). See more current weather

Past Weather in Wolfenbüttel — Graph

°F

Wolfenbüttel Temperature Yesterday

Maximum temperature yesterday: 81 °F (at 4:50 pm)
Minimum temperature yesterday: 46 °F (at 4:20 am)
Average temperature yesterday: 65 °F

High & Low Weather Summary for the Past Weeks

 TemperatureHumidityPressure
High82 °F (Jun 3, 4:50 pm)100% (Jun 1, 5:50 am)30.33 "Hg (Jun 1, 5:50 am)
Low43 °F (Jun 1, 5:50 am)27% (May 31, 4:20 pm)29.98 "Hg (Jun 12, 11:20 am)
Average65 °F69%30.13 "Hg
* Reported May 31 6:20 am — Jun 15 6:50 am, Wolfenbüttel. Weather by CustomWeather, © 2021

Note: Actual official high and low records may vary slightly from our data, if they occured in-between our weather recording intervals... More about our weather records

Wolfenbüttel Weather History for the Previous 24 Hours

Scroll right to see more
 ConditionsComfort  
Time TempWeatherWind HumidityBarometerVisibility
6:50 am
Tue, Jun 15
59 °FPassing clouds.6 mph88%30.09 "HgN/A
6:20 am57 °FPassing clouds.5 mph94%30.09 "HgN/A
5:50 am55 °FSunny.3 mph94%30.09 "HgN/A
5:20 am57 °FSunny.3 mph88%30.09 "HgN/A
4:50 am57 °FClear.5 mph88%30.07 "HgN/A
4:20 am57 °FClear.3 mph88%30.07 "HgN/A
3:50 am57 °FClear.3 mph88%30.07 "HgN/A
3:20 am61 °FClear.No wind77%30.07 "HgN/A
2:50 am63 °FClear.2 mph73%30.07 "HgN/A
2:20 am63 °FClear.5 mph73%30.07 "HgN/A
1:50 am63 °FClear.3 mph77%30.07 "HgN/A
1:20 am61 °FClear.No wind77%30.07 "HgN/A
12:50 am61 °FClear.No wind83%30.07 "HgN/A
12:20 am61 °FClear.2 mph83%30.07 "HgN/A
11:50 pm
Mon, Jun 14
59 °FClear.No wind88%30.07 "HgN/A
11:20 pm61 °FClear.No wind83%30.07 "HgN/A
10:50 pm63 °FClear.No wind73%30.07 "HgN/A
10:20 pm63 °FClear.No wind77%30.07 "HgN/A
9:50 pm68 °FClear.No wind60%30.07 "HgN/A
9:20 pm72 °FSunny.No wind53%30.07 "HgN/A
8:50 pm73 °FSunny.5 mph50%30.04 "HgN/A
8:20 pm77 °FSunny.6 mph42%30.07 "Hg10 mi
7:50 pm79 °FPassing clouds.8 mph37%30.07 "HgN/A
7:20 pm79 °FPassing clouds.6 mph39%30.07 "HgN/A
6:50 pm79 °FPassing clouds.7 mph42%30.07 "HgN/A
6:20 pm81 °FPassing clouds.6 mph39%30.07 "HgN/A
5:50 pm81 °FPassing clouds.6 mph37%30.07 "HgN/A
5:20 pm81 °FPassing clouds.6 mph37%30.09 "HgN/A
4:50 pm81 °FPassing clouds.7 mph34%30.09 "HgN/A
4:20 pm79 °FSunny.8 mph37%30.09 "Hg10 mi
3:50 pm79 °FPassing clouds.9 mph37%30.12 "HgN/A
3:20 pm79 °FSunny.5 mph39%30.12 "Hg10 mi
2:50 pm79 °FPassing clouds.8 mph39%30.12 "HgN/A
2:20 pm77 °FPassing clouds.7 mph39%30.12 "HgN/A
1:50 pm77 °FPassing clouds.7 mph39%30.12 "HgN/A
1:20 pm75 °FPassing clouds.7 mph39%30.15 "HgN/A
12:50 pm73 °FPassing clouds.6 mph41%30.15 "HgN/A
12:20 pm73 °FPassing clouds.6 mph44%30.18 "HgN/A
11:50 am72 °FPassing clouds.7 mph47%30.18 "HgN/A
11:20 am73 °FSunny.3 mph44%30.18 "Hg10 mi
10:50 am72 °FSunny.6 mph47%30.21 "Hg10 mi
10:20 am70 °FSunny.3 mph46%30.21 "Hg10 mi
9:50 am70 °FSunny.2 mph50%30.21 "Hg10 mi
9:20 am68 °FSunny.2 mph53%30.24 "Hg10 mi
8:50 am66 °FPassing clouds.5 mph56%30.24 "HgN/A
8:20 am63 °FPassing clouds.3 mph64%30.24 "HgN/A
Weather by CustomWeather, © 2021

See weather overview